createdAt,value
2023-05-13T00:00:25.683Z,8.60
2023-05-13T00:03:13.341Z,8.60
2023-05-13T00:06:00.681Z,8.60
2023-05-13T00:08:49.248Z,8.60
2023-05-13T00:11:36.421Z,8.60
2023-05-13T00:14:23.226Z,8.60
2023-05-13T00:17:10.093Z,8.70
2023-05-13T00:19:57.229Z,8.70
2023-05-13T00:22:44.351Z,8.70
2023-05-13T00:25:32.882Z,8.80
2023-05-13T00:28:21.202Z,8.70
2023-05-13T00:31:10.113Z,8.70
2023-05-13T00:33:57.008Z,8.70
2023-05-13T00:36:43.689Z,8.70
2023-05-13T00:39:30.908Z,8.70
2023-05-13T00:42:19.538Z,8.80
2023-05-13T00:45:07.705Z,8.80
2023-05-13T00:47:54.951Z,8.80
2023-05-13T00:50:44.778Z,8.90
2023-05-13T00:53:33.541Z,8.90
2023-05-13T00:56:21.756Z,8.90
2023-05-13T00:59:09.831Z,8.90
2023-05-13T01:02:11.415Z,9.00
2023-05-13T01:05:04.677Z,8.90
2023-05-13T01:08:00.383Z,8.90
2023-05-13T01:10:52.411Z,8.90
2023-05-13T01:13:43.425Z,8.90
2023-05-13T01:16:36.547Z,8.90
2023-05-13T01:19:40.535Z,8.90
2023-05-13T01:22:29.095Z,8.80
2023-05-13T01:25:16.278Z,8.90
2023-05-13T01:28:03.411Z,8.80
2023-05-13T01:30:50.657Z,8.90
2023-05-13T01:33:38.349Z,8.90
2023-05-13T01:36:25.795Z,8.90
2023-05-13T01:39:15.366Z,8.90
2023-05-13T01:42:03.319Z,8.90
2023-05-13T01:44:50.896Z,8.90
2023-05-13T01:47:38.372Z,8.90
2023-05-13T01:50:25.182Z,8.90
2023-05-13T01:53:12.538Z,8.90
2023-05-13T01:56:01.096Z,8.90
2023-05-13T01:58:48.179Z,8.90
2023-05-13T02:01:35.082Z,8.90
2023-05-13T02:04:22.447Z,8.90
2023-05-13T02:07:09.193Z,8.90
2023-05-13T02:09:59.766Z,8.90
2023-05-13T02:12:48.381Z,8.80
2023-05-13T02:15:38.146Z,8.80
2023-05-13T02:18:25.767Z,8.80
2023-05-13T02:21:14.906Z,8.80
2023-05-13T02:24:02.555Z,8.90
2023-05-13T02:26:51.925Z,8.90
2023-05-13T02:29:42.874Z,8.90
2023-05-13T02:32:30.394Z,8.90
2023-05-13T02:35:18.233Z,8.90
2023-05-13T02:38:05.650Z,8.90
2023-05-13T02:40:54.930Z,8.90
2023-05-13T02:43:42.878Z,8.90
2023-05-13T02:46:32.011Z,8.90
2023-05-13T02:49:21.042Z,8.90
2023-05-13T02:52:10.315Z,8.90
2023-05-13T02:54:57.664Z,8.90
2023-05-13T02:57:47.013Z,8.80
2023-05-13T03:00:34.236Z,8.80
2023-05-13T03:03:25.452Z,8.90
2023-05-13T03:06:13.035Z,8.90
2023-05-13T03:09:00.143Z,8.80
2023-05-13T03:11:47.052Z,8.80
2023-05-13T03:14:34.734Z,8.80
2023-05-13T03:17:21.545Z,8.80
2023-05-13T03:20:22.424Z,8.80
2023-05-13T03:23:11.059Z,8.80
2023-05-13T03:25:58.087Z,8.80
2023-05-13T03:28:48.243Z,8.70
2023-05-13T03:31:35.430Z,8.70
2023-05-13T03:34:22.495Z,8.70
2023-05-13T03:37:10.027Z,8.80
2023-05-13T03:39:58.752Z,8.70
2023-05-13T03:42:46.049Z,8.70
2023-05-13T03:45:33.169Z,8.70
2023-05-13T03:48:20.217Z,8.70
2023-05-13T03:51:07.312Z,8.70
2023-05-13T03:53:54.243Z,8.70
2023-05-13T03:56:42.775Z,8.70
2023-05-13T03:59:29.866Z,8.80
2023-05-13T04:02:18.860Z,8.60
2023-05-13T04:05:06.221Z,8.60
2023-05-13T04:07:53.232Z,8.70
2023-05-13T04:10:40.438Z,8.60
2023-05-13T04:13:28.981Z,8.70
2023-05-13T04:16:15.884Z,8.70
2023-05-13T04:19:05.797Z,8.80
2023-05-13T04:21:52.819Z,8.70
2023-05-13T04:24:40.040Z,8.80
2023-05-13T04:27:26.925Z,8.80
2023-05-13T04:30:15.995Z,8.80
2023-05-13T04:33:02.809Z,8.90
2023-05-13T04:35:49.877Z,8.90
2023-05-13T04:38:37.043Z,8.90
2023-05-13T04:41:23.991Z,8.90
2023-05-13T04:44:10.993Z,8.90
2023-05-13T04:46:59.476Z,8.90
2023-05-13T04:49:46.516Z,9.00
2023-05-13T04:52:34.038Z,9.00
2023-05-13T04:55:21.029Z,9.00
2023-05-13T04:58:08.059Z,9.00
2023-05-13T05:00:55.221Z,9.10
2023-05-13T05:03:43.633Z,9.10
2023-05-13T05:06:31.342Z,9.10
2023-05-13T05:09:19.070Z,9.20
2023-05-13T05:12:06.402Z,9.20
2023-05-13T05:14:53.485Z,9.20
2023-05-13T05:17:40.577Z,9.30
2023-05-13T05:20:29.372Z,9.50
2023-05-13T05:23:16.442Z,9.30
2023-05-13T05:26:11.117Z,9.30
2023-05-13T05:28:59.202Z,9.30
2023-05-13T05:31:46.308Z,9.20
2023-05-13T05:34:33.496Z,9.20
2023-05-13T05:37:21.905Z,9.20
2023-05-13T05:40:10.180Z,9.20
2023-05-13T05:42:57.164Z,9.20
2023-05-13T05:45:45.783Z,9.20
2023-05-13T05:48:34.480Z,9.20
2023-05-13T05:51:22.148Z,9.10
2023-05-13T05:54:10.387Z,9.10
2023-05-13T05:56:57.474Z,9.10
2023-05-13T05:59:44.656Z,9.20
2023-05-13T06:02:31.865Z,9.20
2023-05-13T06:05:18.948Z,9.20
2023-05-13T06:08:06.510Z,9.20
2023-05-13T06:10:54.978Z,9.20
2023-05-13T06:13:42.354Z,9.20
2023-05-13T06:16:29.265Z,9.30
2023-05-13T06:19:16.936Z,9.30
2023-05-13T06:22:04.213Z,9.30
2023-05-13T06:24:51.724Z,9.20
2023-05-13T06:27:40.259Z,9.30
2023-05-13T06:30:27.457Z,9.20
2023-05-13T06:33:14.385Z,9.10
2023-05-13T06:36:01.073Z,9.10
2023-05-13T06:38:48.017Z,9.00
2023-05-13T06:41:34.920Z,9.00
2023-05-13T06:44:23.201Z,8.80
2023-05-13T06:47:10.537Z,8.80
2023-05-13T06:49:57.640Z,8.80
2023-05-13T06:52:54.850Z,8.80
2023-05-13T06:55:42.784Z,8.80
2023-05-13T06:58:29.497Z,8.80
2023-05-13T07:01:18.049Z,8.90
2023-05-13T07:04:05.574Z,8.90
2023-05-13T07:06:54.782Z,9.00
2023-05-13T07:09:41.753Z,9.00
2023-05-13T07:12:28.829Z,9.20
2023-05-13T07:15:16.798Z,9.20
2023-05-13T07:18:05.378Z,9.30
2023-05-13T07:20:52.600Z,9.30
2023-05-13T07:23:39.787Z,9.40
2023-05-13T07:26:26.911Z,9.50
2023-05-13T07:29:13.701Z,9.50
2023-05-13T07:32:05.229Z,9.60
2023-05-13T07:34:53.906Z,9.40
2023-05-13T07:37:41.228Z,9.40
2023-05-13T07:40:28.379Z,9.50
2023-05-13T07:43:17.957Z,9.60
2023-05-13T07:46:04.764Z,9.60
2023-05-13T07:48:51.561Z,9.50
2023-05-13T07:51:39.786Z,9.50
2023-05-13T07:54:26.857Z,9.50
2023-05-13T07:57:13.736Z,9.40
2023-05-13T08:00:00.926Z,9.50
2023-05-13T08:02:47.972Z,9.50
2023-05-13T08:05:35.259Z,9.40
2023-05-13T08:08:23.537Z,9.30
2023-05-13T08:11:11.150Z,9.50
2023-05-13T08:13:57.929Z,9.60
2023-05-13T08:16:45.307Z,9.70
2023-05-13T08:19:32.108Z,9.80
2023-05-13T08:22:18.952Z,9.70
2023-05-13T08:25:07.877Z,9.80
2023-05-13T08:27:56.220Z,9.80
2023-05-13T08:30:44.325Z,9.80
2023-05-13T08:33:31.474Z,9.80
2023-05-13T08:36:19.609Z,9.80
2023-05-13T08:39:07.713Z,9.90
2023-05-13T08:41:58.322Z,9.90
2023-05-13T08:44:45.688Z,9.90
2023-05-13T08:47:40.684Z,10.00
2023-05-13T08:50:29.080Z,10.00
2023-05-13T08:53:18.373Z,10.00
2023-05-13T08:56:07.485Z,10.00
2023-05-13T08:58:56.105Z,10.00
2023-05-13T09:01:43.484Z,9.90
2023-05-13T09:04:31.131Z,10.00
2023-05-13T09:07:17.974Z,10.00
2023-05-13T09:10:06.084Z,10.00
2023-05-13T09:12:54.168Z,10.10
2023-05-13T09:15:44.339Z,10.10
2023-05-13T09:18:32.822Z,10.20
2023-05-13T09:21:27.241Z,10.30
2023-05-13T09:24:18.493Z,10.50
2023-05-13T09:27:05.440Z,10.50
2023-05-13T09:30:01.432Z,10.70
2023-05-13T09:33:07.577Z,10.90
2023-05-13T09:35:54.918Z,11.00
2023-05-13T09:38:42.087Z,11.30
2023-05-13T09:41:29.084Z,11.40
2023-05-13T09:44:16.124Z,11.50
2023-05-13T09:47:03.622Z,11.70
2023-05-13T09:49:57.932Z,11.80
2023-05-13T09:52:47.082Z,12.00
2023-05-13T09:55:34.980Z,11.90
2023-05-13T09:58:22.561Z,11.90
2023-05-13T10:01:09.905Z,12.20
2023-05-13T10:03:57.162Z,12.30
2023-05-13T10:06:46.932Z,12.80
2023-05-13T10:09:36.981Z,12.80
2023-05-13T10:12:26.463Z,13.00
2023-05-13T10:15:13.765Z,13.20
2023-05-13T10:18:01.590Z,13.20
2023-05-13T10:20:53.208Z,13.40
2023-05-13T10:23:42.758Z,13.50
2023-05-13T10:26:30.839Z,13.20
2023-05-13T10:29:18.825Z,13.20
2023-05-13T10:32:06.569Z,13.30
2023-05-13T10:34:59.026Z,13.60
2023-05-13T10:38:02.898Z,13.80
2023-05-13T10:41:12.338Z,13.50
2023-05-13T10:56:32.005Z,13.60
2023-05-13T11:23:58.031Z,13.20
2023-05-13T11:26:46.662Z,13.20
2023-05-13T11:29:35.054Z,13.50
2023-05-13T11:32:56.730Z,13.70
2023-05-13T11:35:44.502Z,13.80
2023-05-13T11:38:33.927Z,13.90
2023-05-13T11:41:23.193Z,14.10
2023-05-13T11:44:11.861Z,14.00
2023-05-13T11:47:00.229Z,13.90
2023-05-13T11:49:48.242Z,14.10
2023-05-13T11:52:35.350Z,14.20
2023-05-13T11:55:29.045Z,14.40
2023-05-13T11:58:17.594Z,14.40
2023-05-13T12:01:04.990Z,14.90
2023-05-13T12:03:52.070Z,15.40
2023-05-13T12:06:46.185Z,16.00
2023-05-13T12:09:33.220Z,16.10
2023-05-13T12:12:21.370Z,15.80
2023-05-13T12:15:12.489Z,16.20
2023-05-13T12:18:00.581Z,17.20
2023-05-13T12:20:48.037Z,17.70
2023-05-13T12:23:41.178Z,17.40
2023-05-13T12:26:28.311Z,18.20
2023-05-13T12:29:15.433Z,17.30
2023-05-13T12:32:08.034Z,16.30
2023-05-13T12:34:55.339Z,16.30
2023-05-13T12:37:42.721Z,15.80
2023-05-13T12:43:45.175Z,15.30
2023-05-13T12:46:32.837Z,14.90
2023-05-13T12:49:19.798Z,15.00
2023-05-13T12:52:06.946Z,14.50
2023-05-13T12:54:54.112Z,14.50
2023-05-13T12:57:42.905Z,14.70
2023-05-13T13:00:31.693Z,14.60
2023-05-13T13:03:19.941Z,14.60
2023-05-13T13:06:10.254Z,14.50
2023-05-13T13:08:57.199Z,14.50
2023-05-13T13:11:44.262Z,14.40
2023-05-13T13:14:31.278Z,14.00
2023-05-13T13:17:19.476Z,13.90
2023-05-13T13:20:08.403Z,14.00
2023-05-13T13:22:55.609Z,14.40
2023-05-13T13:25:42.609Z,14.40
2023-05-13T13:28:31.735Z,14.60
2023-05-13T13:31:18.711Z,14.50
2023-05-13T13:34:06.650Z,14.30
2023-05-13T13:36:53.432Z,14.30
2023-05-13T13:39:39.952Z,13.90
2023-05-13T13:42:40.198Z,14.00
2023-05-13T13:45:29.900Z,14.00
2023-05-13T13:48:16.809Z,14.20
2023-05-13T13:51:05.002Z,14.80
2023-05-13T13:53:52.046Z,15.00
2023-05-13T13:56:39.920Z,15.20
2023-05-13T13:59:26.548Z,14.90
2023-05-13T14:02:13.575Z,15.10
2023-05-13T14:05:00.870Z,15.40
2023-05-13T14:07:53.832Z,15.40
2023-05-13T14:10:40.548Z,14.60
2023-05-13T14:13:27.843Z,14.60
2023-05-13T14:16:15.014Z,14.80
2023-05-13T14:19:02.178Z,15.00
2023-05-13T14:21:49.364Z,14.60
2023-05-13T14:24:37.476Z,14.40
2023-05-13T14:27:24.794Z,14.20
2023-05-13T14:30:11.991Z,14.20
2023-05-13T14:33:00.651Z,14.00
2023-05-13T14:35:47.800Z,14.10
2023-05-13T14:38:34.294Z,14.00
2023-05-13T14:41:23.205Z,14.10
2023-05-13T14:44:10.339Z,14.00
2023-05-13T14:46:57.271Z,14.10
2023-05-13T14:49:44.012Z,14.40
2023-05-13T14:52:30.985Z,14.50
2023-05-13T14:55:18.586Z,14.60
2023-05-13T14:58:07.966Z,14.50
2023-05-13T15:00:55.241Z,14.60
2023-05-13T15:03:42.091Z,14.50
2023-05-13T15:06:30.211Z,14.30
2023-05-13T15:09:18.107Z,14.30
2023-05-13T15:12:04.836Z,14.30
2023-05-13T15:14:56.889Z,14.10
2023-05-13T15:17:44.331Z,13.80
2023-05-13T15:20:31.595Z,13.80
2023-05-13T15:23:18.706Z,13.70
2023-05-13T15:26:06.003Z,13.70
2023-05-13T15:28:53.152Z,13.80
2023-05-13T15:31:41.217Z,13.70
2023-05-13T15:34:27.780Z,13.70
2023-05-13T15:37:14.547Z,13.80
2023-05-13T15:40:01.705Z,14.00
2023-05-13T15:42:48.585Z,13.90
2023-05-13T15:45:36.237Z,13.50
2023-05-13T15:48:24.490Z,13.30
2023-05-13T15:51:11.425Z,13.10
2023-05-13T15:53:58.367Z,12.90
2023-05-13T15:56:45.213Z,12.80
2023-05-13T15:59:32.363Z,12.80
2023-05-13T16:02:19.527Z,12.80
2023-05-13T16:05:08.500Z,12.40
2023-05-13T16:07:56.002Z,12.10
2023-05-13T16:10:43.012Z,12.00
2023-05-13T16:13:29.905Z,11.90
2023-05-13T16:16:17.087Z,11.80
2023-05-13T16:19:04.598Z,11.80
2023-05-13T16:21:52.768Z,12.00
2023-05-13T16:24:39.419Z,11.80
2023-05-13T16:27:28.856Z,11.80
2023-05-13T16:30:15.679Z,11.60
2023-05-13T16:33:02.808Z,11.50
2023-05-13T16:35:50.215Z,11.40
2023-05-13T16:38:39.725Z,11.30
2023-05-13T16:41:26.862Z,11.20
2023-05-13T16:44:13.859Z,11.10
2023-05-13T16:47:00.882Z,11.20
2023-05-13T16:49:49.900Z,11.30
2023-05-13T16:52:36.503Z,11.20
2023-05-13T16:55:25.974Z,11.20
2023-05-13T16:58:12.844Z,11.10
2023-05-13T17:00:59.928Z,11.10
2023-05-13T17:03:46.955Z,11.20
2023-05-13T17:06:33.954Z,11.30
2023-05-13T17:09:21.042Z,11.40
2023-05-13T17:12:09.870Z,11.30
2023-05-13T17:14:56.650Z,11.20
2023-05-13T17:17:43.328Z,11.00
2023-05-13T17:20:30.228Z,10.90
2023-05-13T17:23:17.338Z,11.00
2023-05-13T17:26:04.149Z,11.00
2023-05-13T17:28:52.318Z,11.10
2023-05-13T17:31:39.374Z,11.10
2023-05-13T17:34:26.477Z,10.90
2023-05-13T17:37:13.430Z,10.90
2023-05-13T17:40:02.489Z,10.90
2023-05-13T17:42:51.478Z,10.70
2023-05-13T17:45:42.253Z,10.50
2023-05-13T17:48:29.778Z,10.50
2023-05-13T17:51:16.997Z,10.40
2023-05-13T17:54:03.815Z,10.40
2023-05-13T17:56:51.127Z,10.50
2023-05-13T17:59:37.787Z,10.50
2023-05-13T18:02:26.272Z,10.50
2023-05-13T18:05:13.315Z,10.40
2023-05-13T18:08:00.374Z,10.40
2023-05-13T18:10:48.097Z,10.40
2023-05-13T18:13:36.013Z,10.50
2023-05-13T18:16:23.368Z,10.50
2023-05-13T18:19:11.816Z,10.50
2023-05-13T18:21:58.850Z,10.40
2023-05-13T18:24:45.913Z,10.40
2023-05-13T18:27:32.859Z,10.30
2023-05-13T18:30:20.719Z,10.30
2023-05-13T18:33:07.714Z,10.20
2023-05-13T18:35:56.326Z,10.20
2023-05-13T18:38:45.912Z,10.20
2023-05-13T18:41:33.034Z,10.10
2023-05-13T18:44:19.833Z,10.10
2023-05-13T18:47:07.507Z,10.10
2023-05-13T18:49:54.481Z,10.10
2023-05-13T18:52:42.742Z,10.10
2023-05-13T18:55:29.452Z,10.10
2023-05-13T18:58:16.841Z,10.10
2023-05-13T19:01:03.924Z,10.10
2023-05-13T19:03:50.858Z,10.00
2023-05-13T19:06:38.015Z,9.80
2023-05-13T19:09:26.427Z,9.80
2023-05-13T19:12:13.117Z,9.80
2023-05-13T19:15:00.174Z,9.80
2023-05-13T19:17:48.092Z,9.80
2023-05-13T19:20:34.856Z,9.80
2023-05-13T19:23:21.495Z,9.70
2023-05-13T19:26:10.278Z,9.70
2023-05-13T19:28:58.058Z,9.60
2023-05-13T19:31:45.247Z,9.60
2023-05-13T19:34:32.494Z,9.50
2023-05-13T19:37:19.087Z,9.50
2023-05-13T19:40:06.738Z,9.40
2023-05-13T19:42:56.497Z,9.30
2023-05-13T19:45:43.817Z,9.40
2023-05-13T19:48:30.875Z,9.40
2023-05-13T19:51:18.129Z,9.30
2023-05-13T19:54:06.847Z,9.30
2023-05-13T19:56:54.565Z,9.30
2023-05-13T19:59:42.829Z,9.20
2023-05-13T20:02:29.693Z,9.20
2023-05-13T20:05:16.850Z,9.20
2023-05-13T20:08:03.557Z,9.20
2023-05-13T20:10:50.533Z,9.10
2023-05-13T20:13:37.218Z,9.10
2023-05-13T20:16:25.943Z,9.10
2023-05-13T20:19:13.127Z,9.10
2023-05-13T20:22:00.592Z,9.10
2023-05-13T20:24:48.830Z,9.10
2023-05-13T20:27:35.837Z,9.00
2023-05-13T20:30:22.787Z,9.00
2023-05-13T20:33:11.559Z,9.00
2023-05-13T20:35:58.758Z,9.00
2023-05-13T20:38:45.949Z,8.90
2023-05-13T20:41:32.980Z,8.80
2023-05-13T20:44:19.947Z,8.80
2023-05-13T20:47:07.844Z,8.80
2023-05-13T20:49:56.125Z,8.80
2023-05-13T20:52:42.972Z,8.70
2023-05-13T20:55:30.047Z,8.80
2023-05-13T20:58:16.954Z,8.70
2023-05-13T21:01:03.712Z,8.70
2023-05-13T21:03:50.785Z,8.60
2023-05-13T21:06:39.473Z,8.60
2023-05-13T21:09:26.079Z,8.50
2023-05-13T21:12:13.402Z,8.40
2023-05-13T21:15:00.426Z,8.30
2023-05-13T21:17:47.839Z,8.20
2023-05-13T21:20:39.805Z,8.10
2023-05-13T21:23:29.314Z,8.00
2023-05-13T21:26:16.319Z,7.90
2023-05-13T21:29:03.363Z,7.80
2023-05-13T21:31:50.921Z,7.60
2023-05-13T21:34:37.589Z,7.60
2023-05-13T21:37:24.628Z,7.50
2023-05-13T21:40:13.326Z,7.40
2023-05-13T21:43:00.111Z,7.40
2023-05-13T21:45:49.058Z,7.20
2023-05-13T21:48:35.967Z,7.10
2023-05-13T21:51:23.580Z,7.10
2023-05-13T21:54:10.957Z,7.00
2023-05-13T21:56:59.627Z,7.00
2023-05-13T21:59:46.975Z,6.90
2023-05-13T22:02:33.815Z,6.80
2023-05-13T22:05:20.782Z,6.80
2023-05-13T22:08:07.772Z,6.70
2023-05-13T22:10:54.683Z,6.60
2023-05-13T22:13:42.973Z,6.60
2023-05-13T22:16:30.751Z,6.60
2023-05-13T22:19:17.722Z,6.50
2023-05-13T22:22:04.835Z,6.40
2023-05-13T22:24:51.760Z,6.30
2023-05-13T22:27:38.656Z,6.30
2023-05-13T22:30:27.176Z,6.20
2023-05-13T22:33:13.921Z,6.10
2023-05-13T22:36:01.295Z,6.00
2023-05-13T22:38:48.291Z,6.00
2023-05-13T22:41:34.965Z,5.90
2023-05-13T22:44:23.106Z,5.90
2023-05-13T22:47:11.306Z,5.90
2023-05-13T22:49:58.428Z,5.80
2023-05-13T22:52:45.245Z,5.80
2023-05-13T22:55:31.958Z,5.70
2023-05-13T22:58:19.098Z,5.70
2023-05-13T23:01:06.216Z,5.70
2023-05-13T23:03:54.734Z,5.70
2023-05-13T23:06:41.832Z,5.60
2023-05-13T23:09:28.764Z,5.60
2023-05-13T23:12:16.044Z,5.50
2023-05-13T23:15:03.126Z,5.50
2023-05-13T23:17:50.621Z,5.50
2023-05-13T23:20:39.235Z,5.50
2023-05-13T23:23:26.018Z,5.50
2023-05-13T23:26:12.969Z,5.50
2023-05-13T23:28:59.558Z,5.60
2023-05-13T23:31:46.612Z,5.70
2023-05-13T23:34:33.770Z,5.70
2023-05-13T23:37:22.487Z,5.90
2023-05-13T23:40:10.231Z,5.90
2023-05-13T23:42:57.285Z,5.90
2023-05-13T23:45:44.027Z,6.00
2023-05-13T23:48:31.793Z,6.10
2023-05-13T23:51:19.011Z,6.20
2023-05-13T23:54:08.200Z,6.30
2023-05-13T23:56:55.081Z,6.30
2023-05-13T23:59:42.061Z,6.30
